Terminal Aerodrome Forecast
Issued by NWS Jackson, KY

Home | Current Version | Previous Version | Text Only | Print | Product List | Glossary On
Versions: 1 2 3 4 5 6 7 8 9 10 11 12 13 14 15 16
187
FTUS43 KJKL 060709 AAA
TAFJKL
TAF AMD
KJKL 060709Z 0607/0706 32004KT 5SM BR SCT090
     FM061700 33008KT P6SM BKN100
     FM062300 32005KT P6SM SCT100=

USA.gov is the U.S. government's official web portal to all federal, state and local government web resources and services.